Time;durP1;ratioP1;P1;durP2;ratioP2;P2;SDS_P1;SDS_P2;PMS_P1;PMS_P2;Temp;Humidity;BMP_temperature;BMP_pressure;BME280_temperature;BME280_humidity;BME280_pressure;Samples;Min_cycle;Max_cycle;Signal;HPM_P1;HPM_P2
2021/05/10 00:00:08;;;;;;;4.90;2.70;;;16.80;55.10;;;;;;2087859;28;20171;-74
2021/05/10 00:01:11;;;;;;;5.20;2.63;;;16.80;54.70;;;;;;2088411;28;20079;-73
2021/05/10 00:02:12;;;;;;;6.22;2.70;;;16.80;55.00;;;;;;2088833;28;20373;-74
2021/05/10 00:03:13;;;;;;;5.07;2.72;;;16.80;54.80;;;;;;2096903;28;20075;-74
2021/05/10 00:04:13;;;;;;;4.32;2.80;;;16.80;55.00;;;;;;2088842;28;20025;-74
2021/05/10 00:05:14;;;;;;;3.63;2.60;;;16.70;55.00;;;;;;2089041;28;20025;-72
2021/05/10 00:06:15;;;;;;;3.63;2.58;;;16.70;55.10;;;;;;2080624;28;20033;-75
2021/05/10 00:07:15;;;;;;;3.58;2.42;;;16.70;54.80;;;;;;2088877;28;20052;-73
2021/05/10 00:08:16;;;;;;;4.50;2.42;;;16.70;54.80;;;;;;2088894;28;20033;-73
2021/05/10 00:09:17;;;;;;;4.32;2.60;;;16.70;54.90;;;;;;2088084;28;20043;-73
2021/05/10 00:10:17;;;;;;;2.80;2.50;;;16.70;54.90;;;;;;2087662;28;20515;-73
2021/05/10 00:11:18;;;;;;;3.40;2.50;;;16.70;54.80;;;;;;2088836;28;20056;-74
2021/05/10 00:12:19;;;;;;;4.15;2.55;;;16.70;54.90;;;;;;2087954;28;20465;-74
2021/05/10 00:13:20;;;;;;;3.40;2.67;;;16.70;54.90;;;;;;2080142;28;20052;-74
2021/05/10 00:14:38;;;;;;;5.68;2.70;;;16.70;54.90;;;;;;2079787;28;20041;-74
2021/05/10 00:15:38;;;;;;;3.45;2.40;;;16.70;54.70;;;;;;2076770;28;20064;-74
2021/05/10 00:16:39;;;;;;;2.95;2.50;;;16.70;54.90;;;;;;2088381;28;20512;-74
2021/05/10 00:17:40;;;;;;;3.10;2.50;;;16.60;55.10;;;;;;2088345;28;20021;-74
2021/05/10 00:18:40;;;;;;;4.43;2.45;;;16.60;55.30;;;;;;2088218;28;20095;-73
2021/05/10 00:19:41;;;;;;;6.90;2.40;;;16.60;55.30;;;;;;2087832;28;20587;-74
2021/05/10 00:20:43;;;;;;;4.43;2.20;;;16.60;54.80;;;;;;2087623;28;20025;-74
2021/05/10 00:21:44;;;;;;;3.75;2.30;;;16.60;54.80;;;;;;2080005;28;20025;-74
2021/05/10 00:22:44;;;;;;;5.28;2.80;;;16.60;54.70;;;;;;2088084;28;20017;-74
2021/05/10 00:23:45;;;;;;;5.75;2.50;;;16.60;54.90;;;;;;2089080;28;20024;-73
2021/05/10 00:24:46;;;;;;;4.55;2.60;;;16.60;55.00;;;;;;2088106;28;20059;-73
2021/05/10 00:25:46;;;;;;;4.47;2.90;;;16.60;55.10;;;;;;2079805;28;20021;-74
2021/05/10 00:26:47;;;;;;;4.63;2.60;;;16.60;54.70;;;;;;2088344;28;20029;-74
2021/05/10 00:27:48;;;;;;;5.32;2.50;;;16.60;54.80;;;;;;2088925;28;20028;-74
2021/05/10 00:28:51;;;;;;;3.85;2.63;;;16.60;54.70;;;;;;2084462;28;20017;-73
2021/05/10 00:29:52;;;;;;;3.42;2.50;;;16.60;54.80;;;;;;2088405;28;20754;-74
2021/05/10 00:30:52;;;;;;;6.47;2.60;;;16.60;54.80;;;;;;2088534;28;20036;-73
2021/05/10 00:31:53;;;;;;;3.60;2.60;;;16.60;54.80;;;;;;2088363;28;20028;-73
2021/05/10 00:32:54;;;;;;;2.92;2.65;;;16.60;55.00;;;;;;2088544;28;20119;-74
2021/05/10 00:33:54;;;;;;;5.30;2.40;;;16.50;55.00;;;;;;2088476;28;20122;-74
2021/05/10 00:34:55;;;;;;;4.18;2.47;;;16.50;55.00;;;;;;2088464;28;20546;-74
2021/05/10 00:35:55;;;;;;;4.90;2.75;;;16.50;55.00;;;;;;2087844;28;20029;-73
2021/05/10 00:36:56;;;;;;;6.30;2.63;;;16.50;55.00;;;;;;2087979;28;20063;-74
2021/05/10 00:37:58;;;;;;;3.80;3.08;;;16.50;55.20;;;;;;2088674;28;20037;-75
2021/05/10 00:38:58;;;;;;;4.32;2.80;;;16.50;55.20;;;;;;2088690;28;20021;-74
2021/05/10 00:39:59;;;;;;;2.83;2.40;;;16.40;55.20;;;;;;2088232;28;20388;-74
2021/05/10 00:41:00;;;;;;;4.22;2.65;;;16.50;55.10;;;;;;2088142;28;20021;-73
2021/05/10 00:42:00;;;;;;;5.35;2.70;;;16.40;55.10;;;;;;2088057;28;20017;-74
2021/05/10 00:43:01;;;;;;;7.20;2.70;;;16.40;55.40;;;;;;2088758;28;20027;-73
2021/05/10 00:44:02;;;;;;;4.75;2.60;;;16.40;55.50;;;;;;2087948;28;20539;-74
2021/05/10 00:45:05;;;;;;;4.28;2.85;;;16.30;55.60;;;;;;2088519;28;20025;-74
2021/05/10 00:46:05;;;;;;;4.32;2.45;;;16.30;55.50;;;;;;2087945;28;20029;-73
2021/05/10 00:47:06;;;;;;;5.10;2.58;;;16.30;55.30;;;;;;2088265;28;20036;-74
2021/05/10 00:48:07;;;;;;;3.28;2.70;;;16.30;55.30;;;;;;2088030;28;20540;-74
2021/05/10 00:49:08;;;;;;;5.03;2.40;;;16.30;55.30;;;;;;2088186;28;20152;-73
2021/05/10 00:50:10;;;;;;;4.88;2.30;;;16.30;55.20;;;;;;2088278;28;20029;-74
2021/05/10 00:51:11;;;;;;;3.28;2.70;;;16.30;55.20;;;;;;2080168;28;20060;-75
2021/05/10 00:52:11;;;;;;;2.92;2.40;;;16.30;55.20;;;;;;2081039;28;20030;-74
2021/05/10 00:53:12;;;;;;;9.35;2.38;;;16.40;55.00;;;;;;2080686;28;20055;-73
2021/05/10 00:54:13;;;;;;;4.55;2.40;;;16.40;54.70;;;;;;2080157;28;20064;-74
2021/05/10 00:55:14;;;;;;;4.63;2.47;;;16.40;55.40;;;;;;2088336;28;20021;-73
2021/05/10 00:56:16;;;;;;;4.47;2.28;;;16.40;54.80;;;;;;2089718;28;20041;-74
2021/05/10 00:57:17;;;;;;;5.40;2.47;;;16.40;54.50;;;;;;2080113;28;20018;-73
2021/05/10 00:58:18;;;;;;;4.28;2.42;;;16.40;55.00;;;;;;2080374;28;20037;-73
2021/05/10 00:59:18;;;;;;;5.07;2.40;;;16.30;54.90;;;;;;2071708;28;20061;-74
2021/05/10 01:00:21;;;;;;;6.88;2.45;;;16.30;54.80;;;;;;2071170;28;20026;-73
2021/05/10 01:01:21;;;;;;;2.50;2.30;;;16.30;54.70;;;;;;2080046;28;20507;-74
2021/05/10 01:02:23;;;;;;;5.50;2.35;;;16.30;54.90;;;;;;2079920;28;20071;-74
2021/05/10 01:03:25;;;;;;;3.20;2.38;;;16.30;54.70;;;;;;2080896;28;20100;-74
2021/05/10 01:04:26;;;;;;;3.63;2.20;;;16.30;54.90;;;;;;2097078;28;20044;-74
2021/05/10 01:05:26;;;;;;;2.58;2.38;;;16.30;55.10;;;;;;2095983;28;20031;-75
2021/05/10 01:06:27;;;;;;;2.63;2.28;;;16.20;55.00;;;;;;2088036;28;20124;-74
2021/05/10 01:07:28;;;;;;;4.20;2.40;;;16.20;55.10;;;;;;2087896;28;20423;-74
2021/05/10 01:08:28;;;;;;;3.13;2.30;;;16.20;54.90;;;;;;2079700;28;20109;-73
2021/05/10 01:09:29;;;;;;;5.97;2.40;;;16.20;54.70;;;;;;2071433;28;20062;-74
2021/05/10 01:10:30;;;;;;;4.07;2.30;;;16.20;54.80;;;;;;2079128;28;20619;-73
2021/05/10 01:11:31;;;;;;;6.47;2.20;;;16.20;55.00;;;;;;2087949;28;20033;-74
2021/05/10 01:12:31;;;;;;;5.13;2.28;;;16.20;54.90;;;;;;2088467;28;20119;-74
2021/05/10 01:13:32;;;;;;;5.93;2.25;;;16.20;55.10;;;;;;2088408;28;20029;-74
2021/05/10 01:14:36;;;;;;;5.45;2.30;;;16.10;55.30;;;;;;2088653;28;20418;-73
2021/05/10 01:15:39;;;;;;;4.25;2.20;;;16.10;55.00;;;;;;2079722;28;20120;-73
2021/05/10 01:16:40;;;;;;;3.40;2.40;;;16.10;55.20;;;;;;2079998;28;20044;-74
2021/05/10 01:17:41;;;;;;;4.32;2.40;;;16.10;55.50;;;;;;2088358;28;20103;-73
2021/05/10 01:18:42;;;;;;;2.45;2.25;;;16.10;55.30;;;;;;2088469;28;20032;-74
2021/05/10 01:19:43;;;;;;;5.43;2.55;;;16.10;55.30;;;;;;2091252;28;20093;-74
2021/05/10 01:20:46;;;;;;;4.80;2.40;;;16.00;55.50;;;;;;2095592;28;20019;-73
2021/05/10 01:21:48;;;;;;;4.18;2.40;;;16.00;55.70;;;;;;2092452;28;20029;-75
2021/05/10 01:22:57;;;;;;;5.55;2.28;;;16.00;55.50;;;;;;2088333;28;20040;-74
2021/05/10 01:23:58;;;;;;;4.13;2.05;;;16.00;55.10;;;;;;2088380;28;20087;-74
2021/05/10 01:24:59;;;;;;;4.90;2.42;;;16.00;55.20;;;;;;2079748;28;20029;-73
2021/05/10 01:26:00;;;;;;;4.90;2.25;;;16.00;55.10;;;;;;2079610;28;20032;-74
2021/05/10 01:27:01;;;;;;;2.40;2.20;;;16.00;55.00;;;;;;2088767;28;20025;-74
2021/05/10 01:28:02;;;;;;;4.20;2.47;;;16.00;54.80;;;;;;2090317;28;20024;-74
2021/05/10 01:29:03;;;;;;;4.97;2.50;;;16.00;54.90;;;;;;2087344;28;20044;-74
2021/05/10 01:30:07;;;;;;;4.15;2.30;;;16.00;54.90;;;;;;2089419;28;20027;-74
2021/05/10 01:31:09;;;;;;;2.58;2.20;;;16.00;54.90;;;;;;2090284;28;20028;-74
2021/05/10 01:32:09;;;;;;;3.13;2.50;;;16.00;55.10;;;;;;2089937;28;20029;-74
2021/05/10 01:33:11;;;;;;;3.85;2.45;;;16.00;55.20;;;;;;2089989;28;20079;-74
2021/05/10 01:34:12;;;;;;;3.88;2.20;;;15.90;55.30;;;;;;2089716;28;20033;-74
2021/05/10 01:35:14;;;;;;;5.10;2.40;;;15.90;55.50;;;;;;2097023;28;20032;-74
2021/05/10 01:36:15;;;;;;;3.13;2.22;;;15.90;55.50;;;;;;2090645;28;20885;-74
2021/05/10 01:37:15;;;;;;;3.67;2.40;;;15.90;55.70;;;;;;2089883;28;20075;-75
2021/05/10 01:38:17;;;;;;;2.80;2.10;;;15.80;55.80;;;;;;2089714;28;20064;-74
2021/05/10 01:39:17;;;;;;;2.70;2.40;;;15.80;55.80;;;;;;2089818;28;20029;-74
2021/05/10 01:40:18;;;;;;;4.43;2.20;;;15.80;55.80;;;;;;2089440;28;20028;-74
2021/05/10 01:41:19;;;;;;;2.58;2.35;;;15.70;55.80;;;;;;2089812;28;20033;-74
2021/05/10 01:42:20;;;;;;;3.20;2.30;;;15.70;55.70;;;;;;2089715;28;20037;-74
2021/05/10 01:43:20;;;;;;;3.25;2.28;;;15.70;55.80;;;;;;2088988;28;20032;-74
2021/05/10 01:44:21;;;;;;;5.55;2.38;;;15.70;55.60;;;;;;2089166;28;20374;-74
2021/05/10 01:45:22;;;;;;;3.42;2.35;;;15.70;55.70;;;;;;2089901;28;20492;-73
2021/05/10 01:46:22;;;;;;;5.15;2.50;;;15.70;55.80;;;;;;2089727;28;20075;-74
2021/05/10 01:47:23;;;;;;;2.92;2.30;;;15.70;55.90;;;;;;2090018;28;20356;-75
2021/05/10 01:48:24;;;;;;;2.33;2.13;;;15.60;56.00;;;;;;2090354;28;20025;-74
2021/05/10 01:49:24;;;;;;;3.60;2.22;;;15.60;56.10;;;;;;2089849;28;20806;-74
2021/05/10 01:50:25;;;;;;;2.80;2.33;;;15.60;55.90;;;;;;2089434;28;20051;-74
2021/05/10 01:51:26;;;;;;;4.80;2.22;;;15.60;55.80;;;;;;2090774;28;20025;-74
2021/05/10 01:52:27;;;;;;;2.70;2.45;;;15.60;55.80;;;;;;2090285;28;20547;-74
2021/05/10 01:53:28;;;;;;;4.63;2.28;;;15.60;55.70;;;;;;2082050;28;20087;-75
2021/05/10 01:54:29;;;;;;;4.70;2.40;;;15.60;55.60;;;;;;2071994;28;20037;-74
2021/05/10 01:55:30;;;;;;;5.43;2.90;;;15.60;55.80;;;;;;2072561;28;20030;-74
2021/05/10 01:56:34;;;;;;;4.05;2.50;;;15.60;55.80;;;;;;2089053;28;20029;-73
2021/05/10 01:57:35;;;;;;;3.08;2.50;;;15.60;55.60;;;;;;2091391;28;20032;-73
2021/05/10 01:58:36;;;;;;;5.93;2.70;;;15.60;55.60;;;;;;2086032;28;20076;-73
2021/05/10 01:59:37;;;;;;;4.63;2.40;;;15.60;55.70;;;;;;2088780;28;20091;-74
2021/05/10 02:00:43;;;;;;;5.63;2.53;;;15.60;55.60;;;;;;2080249;28;20071;-73
2021/05/10 02:01:44;;;;;;;2.97;2.50;;;15.60;55.60;;;;;;2073309;28;20060;-74
2021/05/10 02:02:44;;;;;;;5.05;2.60;;;15.60;55.80;;;;;;2080724;28;20428;-73
2021/05/10 02:03:45;;;;;;;4.28;2.50;;;15.50;55.80;;;;;;2080493;28;20013;-73
2021/05/10 02:05:04;;;;;;;3.38;2.60;;;15.50;55.40;;;;;;2072562;28;20034;-74
2021/05/10 02:06:05;;;;;;;3.13;2.40;;;15.50;55.60;;;;;;2083112;28;20021;-74
2021/05/10 02:07:06;;;;;;;4.82;2.53;;;15.60;56.30;;;;;;2088914;28;20098;-73
2021/05/10 02:08:08;;;;;;;4.30;2.47;;;15.50;55.80;;;;;;2089437;28;20032;-73
2021/05/10 02:09:09;;;;;;;2.90;2.60;;;15.50;55.80;;;;;;2089463;28;20028;-73
2021/05/10 02:10:14;;;;;;;4.60;2.63;;;15.50;55.90;;;;;;2088814;28;20481;-73
2021/05/10 02:11:14;;;;;;;6.28;2.63;;;15.50;55.80;;;;;;2088855;28;20590;-73
2021/05/10 02:12:15;;;;;;;5.20;2.60;;;15.50;55.60;;;;;;2087721;28;20025;-74
2021/05/10 02:13:21;;;;;;;4.00;2.30;;;15.50;55.80;;;;;;2089814;28;20024;-73
2021/05/10 02:14:22;;;;;;;5.00;2.90;;;15.40;56.00;;;;;;2089639;28;20029;-73
2021/05/10 02:15:24;;;;;;;3.17;2.40;;;15.40;55.70;;;;;;2088867;28;20058;-73
2021/05/10 02:16:25;;;;;;;3.58;2.50;;;15.40;55.80;;;;;;2088850;28;20040;-74
2021/05/10 02:17:25;;;;;;;5.38;2.67;;;15.40;55.90;;;;;;2089546;28;20113;-77
2021/05/10 02:18:35;;;;;;;4.38;2.55;;;15.40;56.30;;;;;;2089426;28;20492;-73
2021/05/10 02:19:36;;;;;;;3.22;2.40;;;15.40;56.20;;;;;;2091457;28;20551;-73
2021/05/10 02:20:38;;;;;;;3.67;2.40;;;15.40;56.50;;;;;;2094774;28;20115;-74
2021/05/10 02:21:39;;;;;;;3.83;2.58;;;15.30;56.30;;;;;;2089027;28;20397;-74
2021/05/10 02:22:40;;;;;;;6.65;2.60;;;15.30;56.40;;;;;;2089512;28;20107;-74
2021/05/10 02:23:40;;;;;;;4.55;2.47;;;15.30;56.50;;;;;;2089304;28;20029;-74
2021/05/10 02:24:41;;;;;;;5.38;2.42;;;15.30;56.70;;;;;;2089573;28;20021;-74
2021/05/10 02:25:46;;;;;;;3.35;2.40;;;15.30;56.60;;;;;;2089629;28;20021;-74
2021/05/10 02:26:47;;;;;;;3.95;2.35;;;15.30;56.70;;;;;;2089585;28;20020;-74
2021/05/10 02:27:48;;;;;;;4.50;2.60;;;15.20;56.60;;;;;;2089330;28;20836;-74
2021/05/10 02:28:49;;;;;;;4.32;2.45;;;15.20;56.60;;;;;;2079067;28;20017;-73
2021/05/10 02:29:49;;;;;;;4.78;2.47;;;15.20;56.60;;;;;;2088879;28;20130;-73
2021/05/10 02:30:52;;;;;;;3.45;2.35;;;15.20;56.70;;;;;;2093498;28;20032;-73
2021/05/10 02:31:53;;;;;;;4.57;2.60;;;15.20;56.50;;;;;;2089141;28;20024;-73
2021/05/10 02:32:54;;;;;;;3.58;2.50;;;15.30;56.50;;;;;;2088963;28;20096;-73
2021/05/10 02:33:54;;;;;;;3.03;2.40;;;15.30;56.60;;;;;;2080359;28;20115;-75
2021/05/10 02:34:55;;;;;;;3.35;2.70;;;15.30;56.60;;;;;;2080647;28;20033;-74
2021/05/10 02:35:56;;;;;;;4.53;2.67;;;15.30;56.70;;;;;;2089493;28;20021;-74
2021/05/10 02:36:57;;;;;;;4.43;2.70;;;15.20;56.80;;;;;;2088785;28;20035;-73
2021/05/10 02:37:58;;;;;;;6.43;2.80;;;15.20;56.70;;;;;;2088707;28;20167;-74
2021/05/10 02:38:58;;;;;;;3.67;2.90;;;15.20;56.50;;;;;;2088455;28;20151;-74
2021/05/10 02:39:59;;;;;;;3.72;2.70;;;15.20;56.50;;;;;;2088751;28;20032;-73
2021/05/10 02:40:59;;;;;;;4.53;2.80;;;15.30;56.40;;;;;;2088870;28;20191;-74
2021/05/10 02:42:00;;;;;;;3.75;2.58;;;15.30;56.80;;;;;;2088841;28;20021;-74
2021/05/10 02:43:01;;;;;;;4.68;2.67;;;15.20;56.70;;;;;;2089455;28;20029;-74
2021/05/10 02:44:02;;;;;;;5.03;2.97;;;15.20;56.70;;;;;;2089058;28;20039;-74
2021/05/10 02:45:05;;;;;;;5.65;2.45;;;15.20;56.70;;;;;;2088617;28;20116;-74
2021/05/10 02:46:05;;;;;;;5.93;2.55;;;15.20;56.70;;;;;;2088737;28;20111;-73
2021/05/10 02:47:06;;;;;;;5.30;2.40;;;15.20;56.60;;;;;;2089233;28;20691;-74
2021/05/10 02:48:07;;;;;;;5.10;2.55;;;15.20;56.80;;;;;;2089161;28;20536;-74
2021/05/10 02:49:08;;;;;;;5.00;2.70;;;15.20;56.80;;;;;;2089316;28;20370;-73
2021/05/10 02:50:12;;;;;;;4.07;2.60;;;15.20;56.80;;;;;;2088626;28;20035;-74
2021/05/10 02:51:12;;;;;;;4.60;2.40;;;15.20;57.10;;;;;;2089450;28;20063;-73
2021/05/10 02:52:13;;;;;;;5.13;2.65;;;15.20;56.70;;;;;;2089321;28;20036;-74
2021/05/10 02:53:14;;;;;;;4.68;2.90;;;15.20;57.00;;;;;;2080258;28;20044;-74
2021/05/10 02:54:15;;;;;;;3.70;2.50;;;15.20;56.80;;;;;;2078906;28;20121;-73
2021/05/10 02:55:17;;;;;;;4.30;2.80;;;15.20;56.80;;;;;;2089690;28;20025;-73
2021/05/10 02:56:17;;;;;;;3.65;2.83;;;15.20;56.90;;;;;;2088515;28;20063;-73
2021/05/10 02:57:18;;;;;;;5.65;2.53;;;15.20;56.70;;;;;;2088535;28;20427;-73
2021/05/10 02:58:19;;;;;;;3.85;2.75;;;15.20;57.10;;;;;;2089585;28;20074;-74
2021/05/10 02:59:19;;;;;;;5.43;2.88;;;15.20;57.70;;;;;;2089161;28;20032;-73
2021/05/10 03:00:23;;;;;;;4.28;2.30;;;15.20;57.20;;;;;;2088646;28;20040;-74
2021/05/10 03:01:23;;;;;;;4.75;2.90;;;15.10;57.20;;;;;;2089201;28;20032;-74
2021/05/10 03:02:24;;;;;;;3.70;2.80;;;15.10;57.00;;;;;;2081075;28;20040;-72
2021/05/10 03:03:24;;;;;;;3.97;2.50;;;15.10;57.10;;;;;;2089094;28;20059;-73
2021/05/10 03:04:25;;;;;;;2.67;2.47;;;15.10;57.20;;;;;;2088578;28;20059;-73
2021/05/10 03:05:26;;;;;;;5.03;2.50;;;15.10;57.20;;;;;;2088530;28;20021;-74
2021/05/10 03:06:27;;;;;;;3.15;2.60;;;15.10;57.10;;;;;;2088986;28;20578;-73
2021/05/10 03:07:27;;;;;;;5.82;2.83;;;15.10;57.20;;;;;;2089293;28;20507;-74
2021/05/10 03:08:28;;;;;;;5.32;2.63;;;15.10;57.10;;;;;;2089094;28;20167;-73
2021/05/10 03:09:31;;;;;;;4.03;2.80;;;15.10;57.10;;;;;;2089178;28;20032;-72
2021/05/10 03:10:32;;;;;;;2.95;2.65;;;15.10;56.90;;;;;;2088477;28;20120;-73
2021/05/10 03:11:32;;;;;;;3.95;2.60;;;15.10;57.00;;;;;;2088581;28;20033;-73
2021/05/10 03:12:33;;;;;;;5.70;2.70;;;15.10;57.30;;;;;;2088411;28;20087;-74
2021/05/10 03:13:34;;;;;;;4.03;2.70;;;15.10;57.20;;;;;;2089205;28;20025;-73
2021/05/10 03:14:34;;;;;;;4.45;2.70;;;15.10;57.30;;;;;;2089231;28;20543;-74
2021/05/10 03:15:35;;;;;;;3.90;2.80;;;15.00;57.20;;;;;;2089134;28;20488;-73
2021/05/10 03:16:35;;;;;;;4.07;2.83;;;15.00;57.20;;;;;;2088874;28;20082;-73
2021/05/10 03:17:37;;;;;;;6.13;2.83;;;15.10;57.20;;;;;;2088485;28;20049;-74
2021/05/10 03:18:38;;;;;;;4.88;2.70;;;15.10;57.10;;;;;;2088498;28;20502;-73
2021/05/10 03:19:38;;;;;;;5.20;2.70;;;15.10;57.20;;;;;;2089012;28;20045;-73
2021/05/10 03:20:39;;;;;;;3.50;3.00;;;15.10;57.00;;;;;;2087829;28;20036;-73
2021/05/10 03:21:40;;;;;;;4.35;2.75;;;15.10;57.20;;;;;;2082358;28;20101;-73
2021/05/10 03:22:41;;;;;;;4.07;2.80;;;15.00;57.30;;;;;;2094488;28;20709;-73
2021/05/10 03:23:41;;;;;;;3.38;2.60;;;15.00;57.30;;;;;;2088924;28;20119;-73
2021/05/10 03:24:42;;;;;;;3.70;2.55;;;15.00;57.60;;;;;;2088314;28;20025;-73
2021/05/10 03:25:43;;;;;;;3.50;2.67;;;14.90;57.60;;;;;;2088271;28;20551;-74
2021/05/10 03:26:43;;;;;;;4.88;2.60;;;14.90;58.00;;;;;;2089051;28;20033;-74
2021/05/10 03:27:44;;;;;;;3.88;2.88;;;14.90;58.20;;;;;;2088336;28;20029;-72
2021/05/10 03:28:45;;;;;;;4.97;2.70;;;14.90;57.80;;;;;;2080172;28;20017;-73
2021/05/10 03:29:46;;;;;;;3.63;2.60;;;14.90;58.00;;;;;;2080231;28;20714;-73
2021/05/10 03:30:47;;;;;;;4.22;2.90;;;14.80;57.80;;;;;;2088027;28;20840;-73
2021/05/10 03:31:47;;;;;;;4.75;2.80;;;14.90;57.50;;;;;;2089156;28;20028;-73
2021/05/10 03:32:48;;;;;;;3.78;2.88;;;14.90;57.50;;;;;;2089030;28;20037;-74
2021/05/10 03:33:49;;;;;;;4.07;2.72;;;14.90;57.60;;;;;;2088887;28;20051;-74
2021/05/10 03:34:49;;;;;;;3.65;2.58;;;14.90;57.70;;;;;;2088477;28;20511;-73
2021/05/10 03:35:50;;;;;;;5.22;3.00;;;14.90;57.60;;;;;;2088510;28;20124;-73
2021/05/10 03:36:50;;;;;;;4.53;3.03;;;14.90;57.90;;;;;;2089127;28;20029;-74
2021/05/10 03:37:51;;;;;;;6.60;2.78;;;14.90;57.60;;;;;;2089056;28;20029;-74
2021/05/10 03:38:52;;;;;;;4.45;2.60;;;14.90;57.50;;;;;;2088593;28;20025;-73
2021/05/10 03:39:52;;;;;;;3.55;2.80;;;14.90;57.50;;;;;;2088951;28;20349;-73
2021/05/10 03:40:53;;;;;;;3.58;2.58;;;14.90;57.50;;;;;;2088511;28;20038;-74
2021/05/10 03:41:53;;;;;;;4.18;2.72;;;14.90;57.60;;;;;;2088502;28;20032;-72
2021/05/10 03:42:54;;;;;;;4.65;2.63;;;14.90;57.50;;;;;;2088334;28;20033;-73
2021/05/10 03:43:59;;;;;;;3.88;2.60;;;14.90;57.50;;;;;;2089089;28;20071;-73
2021/05/10 03:45:00;;;;;;;4.63;2.80;;;14.90;57.50;;;;;;2089200;28;20021;-73
2021/05/10 03:46:00;;;;;;;5.18;2.80;;;14.90;57.50;;;;;;2089391;28;20021;-73
2021/05/10 03:47:01;;;;;;;6.25;2.70;;;14.90;57.50;;;;;;2089937;28;20020;-73
2021/05/10 03:48:02;;;;;;;3.75;2.80;;;14.90;57.40;;;;;;2089354;28;20052;-73
2021/05/10 03:49:03;;;;;;;4.60;2.72;;;14.90;57.10;;;;;;2088583;28;20108;-73
2021/05/10 03:50:04;;;;;;;6.45;3.10;;;15.00;57.50;;;;;;2086350;28;20033;-74
2021/05/10 03:51:04;;;;;;;3.30;2.60;;;15.00;57.50;;;;;;2091798;28;20052;-73
2021/05/10 03:52:05;;;;;;;5.32;2.95;;;15.00;57.60;;;;;;2089210;28;20464;-73
2021/05/10 03:53:06;;;;;;;4.07;3.00;;;14.90;57.60;;;;;;2088881;28;20024;-74
2021/05/10 03:54:06;;;;;;;3.67;2.88;;;15.00;57.30;;;;;;2088447;28;20443;-73
2021/05/10 03:55:14;;;;;;;6.22;2.88;;;15.00;57.20;;;;;;2088800;28;20029;-73
2021/05/10 03:56:14;;;;;;;5.47;2.90;;;15.00;57.10;;;;;;2088616;28;20547;-73
2021/05/10 03:57:15;;;;;;;5.80;2.90;;;15.00;57.10;;;;;;2088725;28;20033;-73
2021/05/10 03:58:16;;;;;;;6.22;3.03;;;15.00;57.10;;;;;;2084854;28;20395;-73
2021/05/10 03:59:18;;;;;;;5.07;2.88;;;15.00;57.20;;;;;;2087366;28;20041;-73
2021/05/10 04:00:20;;;;;;;3.78;2.50;;;15.00;57.60;;;;;;2087776;28;20393;-73
2021/05/10 04:01:20;;;;;;;5.40;2.90;;;15.00;57.50;;;;;;2088307;28;20121;-73
2021/05/10 04:02:22;;;;;;;5.47;3.22;;;15.00;57.50;;;;;;2089175;28;20632;-74
2021/05/10 04:03:27;;;;;;;7.10;3.10;;;15.00;57.30;;;;;;2088053;28;20021;-73
2021/05/10 04:04:37;;;;;;;7.30;3.30;;;15.00;57.20;;;;;;2088260;28;20072;-73
2021/05/10 04:07:51;;;;;;;5.43;3.00;;;15.10;57.40;;;;;;2088995;28;20392;-73
2021/05/10 04:14:09;;;;;;;5.88;2.80;;;15.90;55.30;;;;;;2088350;28;20027;-74
2021/05/10 04:15:11;;;;;;;6.18;3.13;;;16.50;54.20;;;;;;2088344;28;20029;-73
2021/05/10 04:16:11;;;;;;;5.57;3.03;;;16.90;52.90;;;;;;2088238;28;20092;-74
2021/05/10 04:17:12;;;;;;;4.88;3.03;;;17.30;51.90;;;;;;2086466;28;20038;-74
2021/05/10 04:18:13;;;;;;;6.28;2.80;;;17.60;51.20;;;;;;2082168;28;20025;-74
2021/05/10 04:19:13;;;;;;;5.55;3.00;;;17.90;49.90;;;;;;2079902;28;20653;-74
2021/05/10 04:20:14;;;;;;;5.43;2.80;;;18.00;49.40;;;;;;2087884;28;20033;-74
2021/05/10 04:21:15;;;;;;;4.88;2.80;;;17.90;49.40;;;;;;2089105;28;20025;-74
2021/05/10 04:22:15;;;;;;;5.20;2.50;;;18.10;49.30;;;;;;2088495;28;20095;-73
2021/05/10 04:23:17;;;;;;;4.22;2.80;;;18.20;48.90;;;;;;2086570;28;20059;-73
2021/05/10 04:24:19;;;;;;;5.55;2.90;;;18.30;48.40;;;;;;2089987;28;20029;-74
2021/05/10 04:25:19;;;;;;;6.03;2.70;;;18.60;48.10;;;;;;2089161;28;20078;-73
2021/05/10 04:26:20;;;;;;;6.65;2.88;;;19.00;47.50;;;;;;2079779;28;20022;-74
2021/05/10 04:27:20;;;;;;;6.30;3.10;;;19.30;46.90;;;;;;2072201;28;20059;-74
2021/05/10 04:28:22;;;;;;;4.65;2.90;;;19.50;46.00;;;;;;2083873;28;20025;-74
2021/05/10 04:29:23;;;;;;;6.38;3.08;;;19.60;45.80;;;;;;2087544;28;20025;-74
2021/05/10 04:30:24;;;;;;;5.18;3.00;;;19.80;45.80;;;;;;2088141;28;20029;-74
2021/05/10 04:31:25;;;;;;;7.78;3.35;;;20.10;45.30;;;;;;2079674;28;20033;-74
2021/05/10 04:32:25;;;;;;;4.95;3.10;;;20.10;44.40;;;;;;2079727;28;20051;-74
2021/05/10 04:33:30;;;;;;;5.38;2.83;;;20.20;44.30;;;;;;2088307;28;20079;-75
2021/05/10 04:34:32;;;;;;;8.93;3.55;;;20.50;44.10;;;;;;2087885;28;20025;-74
2021/05/10 04:35:33;;;;;;;6.43;3.00;;;20.70;43.70;;;;;;2087977;28;20021;-74
2021/05/10 04:36:34;;;;;;;6.50;3.03;;;20.90;43.10;;;;;;2088686;28;20029;-74
2021/05/10 04:37:35;;;;;;;6.47;3.08;;;20.80;42.70;;;;;;2088578;28;20117;-75
2021/05/10 04:38:40;;;;;;;8.70;3.10;;;20.90;43.00;;;;;;2079611;28;20033;-74
2021/05/10 04:39:41;;;;;;;6.00;2.80;;;20.80;42.40;;;;;;2080144;28;20059;-75
2021/05/10 04:40:41;;;;;;;3.20;2.58;;;21.00;42.50;;;;;;2088075;28;20075;-74
2021/05/10 04:41:42;;;;;;;6.10;2.80;;;21.10;42.00;;;;;;2088643;28;20120;-74
2021/05/10 04:42:42;;;;;;;6.70;3.05;;;21.10;42.00;;;;;;2088561;28;20068;-75
2021/05/10 04:43:43;;;;;;;5.65;2.85;;;21.10;41.50;;;;;;2088018;28;20541;-74
2021/05/10 04:44:44;;;;;;;5.30;2.53;;;20.90;41.80;;;;;;2087993;28;20558;-75
2021/05/10 04:45:44;;;;;;;4.00;2.60;;;21.10;42.10;;;;;;2087836;28;20029;-75
2021/05/10 04:46:45;;;;;;;2.78;2.47;;;21.20;41.80;;;;;;2079723;28;20021;-76
2021/05/10 04:47:46;;;;;;;4.10;2.47;;;21.50;41.50;;;;;;2081800;28;20026;-75
2021/05/10 04:48:47;;;;;;;3.33;2.40;;;21.70;41.20;;;;;;2088999;28;20103;-75
2021/05/10 04:49:48;;;;;;;5.38;2.50;;;21.90;40.70;;;;;;2088630;28;20111;-75
2021/05/10 04:50:49;;;;;;;4.78;2.70;;;22.00;40.10;;;;;;2087973;28;20029;-75
2021/05/10 04:51:50;;;;;;;3.92;2.65;;;22.10;40.00;;;;;;2079692;28;20713;-75
2021/05/10 04:52:51;;;;;;;4.95;2.70;;;22.00;40.20;;;;;;2079602;28;20786;-75
2021/05/10 04:53:51;;;;;;;3.20;2.60;;;21.90;40.30;;;;;;2090287;28;20090;-75
2021/05/10 04:54:52;;;;;;;4.93;2.55;;;21.70;40.40;;;;;;2094356;28;20086;-75
2021/05/10 04:55:52;;;;;;;3.45;2.25;;;21.70;40.70;;;;;;2088510;28;20041;-75
2021/05/10 04:56:53;;;;;;;4.93;2.40;;;21.70;41.10;;;;;;2088444;28;20483;-75
2021/05/10 04:57:54;;;;;;;2.63;2.40;;;21.60;41.40;;;;;;2087856;28;20029;-77
2021/05/10 04:58:54;;;;;;;5.18;2.47;;;21.50;41.90;;;;;;2083311;28;20059;-75
2021/05/10 04:59:55;;;;;;;4.63;2.75;;;21.70;41.20;;;;;;2088337;28;20056;-75
2021/05/10 05:00:56;;;;;;;5.65;2.53;;;21.70;40.70;;;;;;2088173;28;20039;-76
2021/05/10 05:01:57;;;;;;;3.42;2.60;;;21.70;40.80;;;;;;2089477;28;20052;-75
2021/05/10 05:02:57;;;;;;;5.53;2.83;;;21.90;40.40;;;;;;2089727;28;20017;-75
2021/05/10 05:03:58;;;;;;;4.20;2.70;;;21.90;40.10;;;;;;2089587;28;20013;-73
2021/05/10 05:04:59;;;;;;;5.93;2.53;;;22.00;39.70;;;;;;2090051;28;20048;-73
2021/05/10 05:05:59;;;;;;;3.53;2.50;;;21.80;40.00;;;;;;2089975;28;20017;-73
2021/05/10 05:07:00;;;;;;;4.05;2.60;;;21.80;40.20;;;;;;2091560;28;20021;-73
2021/05/10 05:08:01;;;;;;;5.25;2.47;;;22.00;40.20;;;;;;2091231;28;20025;-73
2021/05/10 05:09:01;;;;;;;3.58;2.20;;;22.30;39.50;;;;;;2090837;28;20119;-73
2021/05/10 05:10:03;;;;;;;4.75;2.70;;;22.50;39.10;;;;;;2090663;28;20028;-73
2021/05/10 05:11:03;;;;;;;5.22;2.97;;;22.50;38.60;;;;;;2082230;28;20026;-73
2021/05/10 05:12:04;;;;;;;3.10;2.40;;;22.50;38.30;;;;;;2090826;28;20024;-74
2021/05/10 05:13:05;;;;;;;3.33;2.58;;;22.70;38.60;;;;;;2090675;28;20033;-74
2021/05/10 05:14:06;;;;;;;4.00;2.70;;;23.00;38.50;;;;;;2091572;28;20100;-74
2021/05/10 05:15:09;;;;;;;5.10;2.60;;;23.00;38.70;;;;;;2092171;28;20488;-75
2021/05/10 05:16:09;;;;;;;7.57;3.15;;;23.10;38.10;;;;;;2092251;28;20029;-74
2021/05/10 05:17:10;;;;;;;3.50;2.58;;;23.20;37.50;;;;;;2091277;28;20029;-74
2021/05/10 05:18:10;;;;;;;4.63;2.63;;;22.90;37.80;;;;;;2083962;28;20048;-74
2021/05/10 05:19:11;;;;;;;4.85;2.47;;;23.00;37.90;;;;;;2080233;28;20037;-74
2021/05/10 05:20:12;;;;;;;5.47;2.70;;;23.00;38.00;;;;;;2085213;28;20075;-74
2021/05/10 05:21:13;;;;;;;4.10;2.42;;;23.10;37.50;;;;;;2091622;28;20055;-74
2021/05/10 05:22:13;;;;;;;4.40;2.60;;;23.10;37.50;;;;;;2093112;28;20056;-75
2021/05/10 05:23:23;;;;;;;4.90;2.60;;;23.20;37.30;;;;;;2090394;28;20029;-74
2021/05/10 05:24:23;;;;;;;4.60;2.83;;;23.30;37.50;;;;;;2096495;28;20090;-74
2021/05/10 05:25:24;;;;;;;4.43;2.55;;;23.50;37.00;;;;;;2091774;28;20033;-74
2021/05/10 05:26:24;;;;;;;3.13;2.35;;;23.50;36.80;;;;;;2090173;28;20036;-74